CTSO2: Bird Creek At Catoosa

                                SHEF ID:       CTSO2     Bird Ck at State Highway 266 nea
STATION TYPE:
Regulating: Stage = 26.00, Flow = 20953

STAGE STAGE(2) RIV-FLOW WTR-TEMP DIS-OXY PH CONDUCT BAT-LOAD
ft ft cfs F mg/l su umho/cm volt
Ccp-Rev Ccp-Rev Ccp-Rev Ccp-Rev Ccp-Rev Ccp-Rev Ccp-Rev Ccp-Rev
(America/Chicago)
05/01 00:00 4.94 3.42 407 67.98 8.19 7.86 404 12.17
05/01 01:00 4.93 3.43 403 67.68 8.11 7.87 406 12.06
05/01 02:00 4.91 3.42 396 67.33 8.19 7.84 409 12.02
05/01 03:00 4.88 3.42 384 66.97 8.11 7.83 410 12.01
05/01 04:00 4.87 3.42 381 66.63 8.06 7.83 399 11.93
05/01 05:00 4.84 3.42 370 66.34 8.05 7.82 405 11.94
05/01 06:00 4.82 3.42 363 66.15 8.02 7.87 399 11.88
05/01 07:00 4.82 3.42 363 66.18 7.98 7.88 395 12.11
05/01 08:00 4.81 3.43 359 66.36 8.15 7.89 396 12.43
05/01 09:00 4.83 3.42 366 66.60 8.13 7.86 393 13.16
05/01 10:00 4.80 3.43 356 66.85 8.25 7.85 387 13.03
05/01 11:00 4.83 3.42 366 67.17 8.32 7.86 381 12.94
05/01 12:00 4.85 3.42 373 67.53 8.37 7.87 380 12.71
05/01 13:00 4.84 3.42 370 68.04 8.54 7.89 372 12.64
05/01 14:00 4.83 3.42 366 68.47 8.71 7.91 371 12.70
05/01 15:00 4.83 3.42 366 68.76 8.67 7.95 380 12.76
05/01 16:00 4.82 3.42 363 68.94 8.77 7.94 391 12.37
05/01 17:00 4.77 3.42 345 69.03 8.84 7.96 394 12.49
05/01 18:00 4.76 3.42 342 69.08 8.88 8.00 404 12.60
05/01 19:00 4.77 3.42 345 69.13 8.90 7.99 406 12.73
05/01 20:00 4.78 3.42 349 69.13 8.97 7.94 404 12.63
05/01 21:00 4.76 3.42 342 69.15 9.00 7.97 406 12.29
05/01 22:00 4.78 3.42 349 69.15 8.94 7.96 404 12.20
05/01 23:00 ---- ---- ---- ---- ---- ---- ---- ----
Data processed at Sat 02May2026 04:21 GMT

NOTICE: If you are parsing this page

Please convert to using our Data API. Starting early 2026 we will be migrating to: https://water.usace.army.mil with modern pages rendered in JavaScript. When this migration completes you will no longer be able to scrape this page! CWMSDataAPI (CDA)

Timeseries IDs (TSIDs)

TSIDs used from left to right in the data table
CATB.Stage.Inst.1Hour.0.Ccp-Rev
CATB.Stage-Alt.Inst.1Hour.0.Ccp-Rev
CATB.Flow.Inst.1Hour.0.Ccp-Rev
CATB.Temp-Water.Inst.1Hour.0.Ccp-Rev
CATB.Conc-DO.Inst.1Hour.0.Ccp-Rev
CATB.pH.Inst.1Hour.0.Ccp-Rev
CATB.Cond-Water.Inst.1Hour.0.Ccp-Rev
CATB.Volt-Battery Load.Inst.1Hour.0.Ccp-Rev

                            

All information presented herein is the property of the government of the United States of America and may be revised or deleted at any time without prior notice. Dissemination of this information without the expressed written consent of the Public Affairs Office, Tulsa District U.S. Army Corps of Engineers is strictly prohibited. These data are gathered electronically and, as presented, have NOT undergone any form of quality control. These data are NOT guaranteed to be valid or correct.